sensor_id;sensor_type;location;lat;lon;timestamp;P1;durP1;ratioP1;P2;durP2;ratioP2
77769;SDS011;66961;51.482;9.160;2023-06-19T00:01:51;9.80;;;8.80;;
77769;SDS011;66961;51.482;9.160;2023-06-19T00:04:17;9.17;;;8.10;;
77769;SDS011;66961;51.482;9.160;2023-06-19T00:06:42;11.70;;;8.90;;
77769;SDS011;66961;51.482;9.160;2023-06-19T00:09:07;10.57;;;9.40;;
77769;SDS011;66961;51.482;9.160;2023-06-19T00:11:32;9.07;;;8.13;;
77769;SDS011;66961;51.482;9.160;2023-06-19T00:13:58;9.50;;;8.50;;
77769;SDS011;66961;51.482;9.160;2023-06-19T00:16:23;9.53;;;8.57;;
77769;SDS011;66961;51.482;9.160;2023-06-19T00:18:48;11.05;;;8.82;;
77769;SDS011;66961;51.482;9.160;2023-06-19T00:21:14;9.80;;;8.80;;
77769;SDS011;66961;51.482;9.160;2023-06-19T00:23:39;10.50;;;9.40;;
77769;SDS011;66961;51.482;9.160;2023-06-19T00:26:04;12.03;;;8.83;;
77769;SDS011;66961;51.482;9.160;2023-06-19T00:28:30;10.23;;;9.13;;
77769;SDS011;66961;51.482;9.160;2023-06-19T00:30:55;10.48;;;8.93;;
77769;SDS011;66961;51.482;9.160;2023-06-19T00:33:21;9.50;;;8.55;;
77769;SDS011;66961;51.482;9.160;2023-06-19T00:35:47;9.75;;;8.73;;
77769;SDS011;66961;51.482;9.160;2023-06-19T00:38:16;10.07;;;8.45;;
77769;SDS011;66961;51.482;9.160;2023-06-19T00:40:41;10.57;;;8.45;;
77769;SDS011;66961;51.482;9.160;2023-06-19T00:43:06;10.25;;;8.40;;
77769;SDS011;66961;51.482;9.160;2023-06-19T00:45:32;11.48;;;9.27;;
77769;SDS011;66961;51.482;9.160;2023-06-19T00:47:57;10.60;;;9.40;;
77769;SDS011;66961;51.482;9.160;2023-06-19T00:50:24;11.45;;;9.25;;
77769;SDS011;66961;51.482;9.160;2023-06-19T00:52:50;10.77;;;8.40;;
77769;SDS011;66961;51.482;9.160;2023-06-19T00:55:15;9.53;;;8.50;;
77769;SDS011;66961;51.482;9.160;2023-06-19T00:57:42;9.50;;;8.50;;
77769;SDS011;66961;51.482;9.160;2023-06-19T01:00:09;11.45;;;9.27;;
77769;SDS011;66961;51.482;9.160;2023-06-19T01:02:37;10.57;;;9.30;;
77769;SDS011;66961;51.482;9.160;2023-06-19T01:05:03;10.93;;;8.90;;
77769;SDS011;66961;51.482;9.160;2023-06-19T01:10:32;10.05;;;8.52;;
77769;SDS011;66961;51.482;9.160;2023-06-19T01:13:07;10.88;;;9.32;;
77769;SDS011;66961;51.482;9.160;2023-06-19T01:15:36;10.80;;;9.07;;
77769;SDS011;66961;51.482;9.160;2023-06-19T01:18:04;10.77;;;9.48;;
77769;SDS011;66961;51.482;9.160;2023-06-19T01:20:30;11.20;;;9.52;;
77769;SDS011;66961;51.482;9.160;2023-06-19T01:22:55;10.70;;;9.03;;
77769;SDS011;66961;51.482;9.160;2023-06-19T01:25:21;9.67;;;8.67;;
77769;SDS011;66961;51.482;9.160;2023-06-19T01:27:46;9.67;;;8.67;;
77769;SDS011;66961;51.482;9.160;2023-06-19T01:30:11;10.43;;;9.30;;
77769;SDS011;66961;51.482;9.160;2023-06-19T01:32:41;10.38;;;8.85;;
77769;SDS011;66961;51.482;9.160;2023-06-19T01:35:15;10.10;;;9.00;;
77769;SDS011;66961;51.482;9.160;2023-06-19T01:37:46;11.18;;;10.05;;
77769;SDS011;66961;51.482;9.160;2023-06-19T01:40:13;12.05;;;10.02;;
77769;SDS011;66961;51.482;9.160;2023-06-19T01:42:40;11.40;;;9.88;;
77769;SDS011;66961;51.482;9.160;2023-06-19T01:45:06;11.02;;;9.35;;
77769;SDS011;66961;51.482;9.160;2023-06-19T01:47:32;11.65;;;9.13;;
77769;SDS011;66961;51.482;9.160;2023-06-19T01:49:58;10.95;;;9.85;;
77769;SDS011;66961;51.482;9.160;2023-06-19T01:52:24;10.68;;;9.40;;
77769;SDS011;66961;51.482;9.160;2023-06-19T01:54:50;10.88;;;9.25;;
77769;SDS011;66961;51.482;9.160;2023-06-19T01:57:15;10.35;;;9.20;;
77769;SDS011;66961;51.482;9.160;2023-06-19T01:59:41;11.32;;;10.10;;
77769;SDS011;66961;51.482;9.160;2023-06-19T02:02:06;9.80;;;8.43;;
77769;SDS011;66961;51.482;9.160;2023-06-19T02:04:31;10.47;;;9.37;;
77769;SDS011;66961;51.482;9.160;2023-06-19T02:06:57;9.27;;;8.07;;
77769;SDS011;66961;51.482;9.160;2023-06-19T02:09:22;9.77;;;8.77;;
77769;SDS011;66961;51.482;9.160;2023-06-19T02:11:48;10.37;;;8.40;;
77769;SDS011;66961;51.482;9.160;2023-06-19T02:14:13;9.50;;;8.53;;
77769;SDS011;66961;51.482;9.160;2023-06-19T02:16:38;9.60;;;7.85;;
77769;SDS011;66961;51.482;9.160;2023-06-19T02:19:03;11.43;;;8.53;;
77769;SDS011;66961;51.482;9.160;2023-06-19T02:21:29;10.67;;;9.07;;
77769;SDS011;66961;51.482;9.160;2023-06-19T02:23:54;9.80;;;8.80;;
77769;SDS011;66961;51.482;9.160;2023-06-19T02:26:19;11.27;;;9.20;;
77769;SDS011;66961;51.482;9.160;2023-06-19T02:28:44;9.53;;;8.53;;
77769;SDS011;66961;51.482;9.160;2023-06-19T02:31:10;9.70;;;8.80;;
77769;SDS011;66961;51.482;9.160;2023-06-19T02:33:35;11.23;;;8.80;;
77769;SDS011;66961;51.482;9.160;2023-06-19T02:36:00;11.70;;;9.45;;
77769;SDS011;66961;51.482;9.160;2023-06-19T02:38:26;10.50;;;9.48;;
77769;SDS011;66961;51.482;9.160;2023-06-19T02:40:51;10.63;;;9.00;;
77769;SDS011;66961;51.482;9.160;2023-06-19T02:43:16;11.50;;;8.97;;
77769;SDS011;66961;51.482;9.160;2023-06-19T02:45:41;11.17;;;9.23;;
77769;SDS011;66961;51.482;9.160;2023-06-19T02:48:07;11.17;;;9.40;;
77769;SDS011;66961;51.482;9.160;2023-06-19T02:50:32;11.60;;;9.53;;
77769;SDS011;66961;51.482;9.160;2023-06-19T02:52:57;11.77;;;9.60;;
77769;SDS011;66961;51.482;9.160;2023-06-19T02:55:22;10.60;;;9.37;;
77769;SDS011;66961;51.482;9.160;2023-06-19T02:57:48;10.77;;;9.17;;
77769;SDS011;66961;51.482;9.160;2023-06-19T03:00:13;10.43;;;9.07;;
77769;SDS011;66961;51.482;9.160;2023-06-19T03:02:39;10.90;;;9.32;;
77769;SDS011;66961;51.482;9.160;2023-06-19T03:05:04;11.70;;;9.00;;
77769;SDS011;66961;51.482;9.160;2023-06-19T03:07:30;10.25;;;9.00;;
77769;SDS011;66961;51.482;9.160;2023-06-19T03:09:55;9.60;;;8.60;;
77769;SDS011;66961;51.482;9.160;2023-06-19T03:12:20;10.17;;;8.57;;
77769;SDS011;66961;51.482;9.160;2023-06-19T03:14:45;12.00;;;9.23;;
77769;SDS011;66961;51.482;9.160;2023-06-19T03:17:12;12.43;;;9.47;;
77769;SDS011;66961;51.482;9.160;2023-06-19T03:19:37;10.73;;;9.05;;
77769;SDS011;66961;51.482;9.160;2023-06-19T03:22:03;10.43;;;9.33;;
77769;SDS011;66961;51.482;9.160;2023-06-19T03:24:28;9.90;;;8.73;;
77769;SDS011;66961;51.482;9.160;2023-06-19T03:26:54;11.73;;;9.13;;
77769;SDS011;66961;51.482;9.160;2023-06-19T03:29:19;11.07;;;9.60;;
77769;SDS011;66961;51.482;9.160;2023-06-19T03:31:44;10.13;;;9.13;;
77769;SDS011;66961;51.482;9.160;2023-06-19T03:34:09;10.37;;;9.07;;
77769;SDS011;66961;51.482;9.160;2023-06-19T03:36:35;11.70;;;9.68;;
77769;SDS011;66961;51.482;9.160;2023-06-19T03:39:00;11.15;;;9.95;;
77769;SDS011;66961;51.482;9.160;2023-06-19T03:41:25;11.45;;;9.20;;
77769;SDS011;66961;51.482;9.160;2023-06-19T03:43:50;9.57;;;8.17;;
77769;SDS011;66961;51.482;9.160;2023-06-19T03:46:16;11.27;;;9.60;;
77769;SDS011;66961;51.482;9.160;2023-06-19T03:48:41;12.60;;;10.57;;
77769;SDS011;66961;51.482;9.160;2023-06-19T03:51:06;10.57;;;9.50;;
77769;SDS011;66961;51.482;9.160;2023-06-19T03:53:31;12.13;;;10.40;;
77769;SDS011;66961;51.482;9.160;2023-06-19T03:55:57;11.50;;;9.77;;
77769;SDS011;66961;51.482;9.160;2023-06-19T03:58:22;11.00;;;9.88;;
77769;SDS011;66961;51.482;9.160;2023-06-19T04:00:47;10.63;;;9.52;;
77769;SDS011;66961;51.482;9.160;2023-06-19T04:03:13;12.13;;;9.30;;
77769;SDS011;66961;51.482;9.160;2023-06-19T04:05:38;12.88;;;10.23;;
77769;SDS011;66961;51.482;9.160;2023-06-19T04:08:03;10.90;;;9.80;;
77769;SDS011;66961;51.482;9.160;2023-06-19T04:10:29;11.75;;;10.50;;
77769;SDS011;66961;51.482;9.160;2023-06-19T04:12:54;13.53;;;10.60;;
77769;SDS011;66961;51.482;9.160;2023-06-19T04:15:19;13.57;;;10.43;;
77769;SDS011;66961;51.482;9.160;2023-06-19T04:17:45;12.30;;;10.32;;
77769;SDS011;66961;51.482;9.160;2023-06-19T04:20:10;11.73;;;10.43;;
77769;SDS011;66961;51.482;9.160;2023-06-19T04:22:36;11.45;;;10.35;;
77769;SDS011;66961;51.482;9.160;2023-06-19T04:25:02;12.73;;;10.70;;
77769;SDS011;66961;51.482;9.160;2023-06-19T04:27:27;11.30;;;9.35;;
77769;SDS011;66961;51.482;9.160;2023-06-19T04:29:53;15.27;;;9.90;;
77769;SDS011;66961;51.482;9.160;2023-06-19T04:32:18;14.13;;;11.37;;
77769;SDS011;66961;51.482;9.160;2023-06-19T04:34:43;13.70;;;10.50;;
77769;SDS011;66961;51.482;9.160;2023-06-19T04:37:09;12.77;;;10.13;;
77769;SDS011;66961;51.482;9.160;2023-06-19T04:39:34;13.50;;;11.27;;
77769;SDS011;66961;51.482;9.160;2023-06-19T04:41:59;13.60;;;10.80;;
77769;SDS011;66961;51.482;9.160;2023-06-19T04:44:24;12.35;;;10.68;;
77769;SDS011;66961;51.482;9.160;2023-06-19T04:46:50;11.97;;;10.60;;
77769;SDS011;66961;51.482;9.160;2023-06-19T04:49:15;13.37;;;11.97;;
77769;SDS011;66961;51.482;9.160;2023-06-19T04:51:40;13.97;;;11.30;;
77769;SDS011;66961;51.482;9.160;2023-06-19T04:54:06;13.27;;;11.88;;
77769;SDS011;66961;51.482;9.160;2023-06-19T04:56:31;12.90;;;10.43;;
77769;SDS011;66961;51.482;9.160;2023-06-19T04:58:56;11.90;;;10.57;;
77769;SDS011;66961;51.482;9.160;2023-06-19T05:01:22;12.20;;;10.90;;
77769;SDS011;66961;51.482;9.160;2023-06-19T05:03:47;13.02;;;11.23;;
77769;SDS011;66961;51.482;9.160;2023-06-19T05:06:12;13.18;;;10.57;;
77769;SDS011;66961;51.482;9.160;2023-06-19T05:08:38;12.37;;;11.07;;
77769;SDS011;66961;51.482;9.160;2023-06-19T05:11:03;15.00;;;11.93;;
77769;SDS011;66961;51.482;9.160;2023-06-19T05:13:28;12.02;;;10.73;;
77769;SDS011;66961;51.482;9.160;2023-06-19T05:15:54;11.65;;;10.55;;
77769;SDS011;66961;51.482;9.160;2023-06-19T05:18:19;12.83;;;11.50;;
77769;SDS011;66961;51.482;9.160;2023-06-19T05:20:44;11.93;;;10.80;;
77769;SDS011;66961;51.482;9.160;2023-06-19T05:23:09;11.97;;;10.73;;
77769;SDS011;66961;51.482;9.160;2023-06-19T05:25:35;11.98;;;10.77;;
77769;SDS011;66961;51.482;9.160;2023-06-19T05:28:00;12.65;;;11.35;;
77769;SDS011;66961;51.482;9.160;2023-06-19T05:30:26;10.73;;;9.63;;
77769;SDS011;66961;51.482;9.160;2023-06-19T05:32:51;14.80;;;11.00;;
77769;SDS011;66961;51.482;9.160;2023-06-19T05:35:16;11.63;;;10.43;;
77769;SDS011;66961;51.482;9.160;2023-06-19T05:37:42;12.35;;;11.05;;
77769;SDS011;66961;51.482;9.160;2023-06-19T05:40:07;12.15;;;10.85;;
77769;SDS011;66961;51.482;9.160;2023-06-19T05:42:33;12.95;;;10.98;;
77769;SDS011;66961;51.482;9.160;2023-06-19T05:44:58;14.00;;;11.37;;
77769;SDS011;66961;51.482;9.160;2023-06-19T05:47:24;13.80;;;10.93;;
77769;SDS011;66961;51.482;9.160;2023-06-19T05:49:49;12.53;;;10.97;;
77769;SDS011;66961;51.482;9.160;2023-06-19T05:52:14;12.60;;;11.30;;
77769;SDS011;66961;51.482;9.160;2023-06-19T05:54:39;16.27;;;11.37;;
77769;SDS011;66961;51.482;9.160;2023-06-19T05:57:05;15.03;;;11.03;;
77769;SDS011;66961;51.482;9.160;2023-06-19T05:59:30;12.57;;;10.95;;
77769;SDS011;66961;51.482;9.160;2023-06-19T06:01:56;12.50;;;10.43;;
77769;SDS011;66961;51.482;9.160;2023-06-19T06:04:21;12.57;;;11.27;;
77769;SDS011;66961;51.482;9.160;2023-06-19T06:06:46;13.63;;;10.60;;
77769;SDS011;66961;51.482;9.160;2023-06-19T06:09:11;12.93;;;10.70;;
77769;SDS011;66961;51.482;9.160;2023-06-19T06:11:37;12.27;;;9.93;;
77769;SDS011;66961;51.482;9.160;2023-06-19T06:14:02;11.53;;;9.80;;
77769;SDS011;66961;51.482;9.160;2023-06-19T06:16:27;10.90;;;9.83;;
77769;SDS011;66961;51.482;9.160;2023-06-19T06:18:52;13.37;;;10.47;;
77769;SDS011;66961;51.482;9.160;2023-06-19T06:21:18;13.27;;;10.50;;
77769;SDS011;66961;51.482;9.160;2023-06-19T06:23:43;11.50;;;10.30;;
77769;SDS011;66961;51.482;9.160;2023-06-19T06:26:08;10.77;;;9.67;;
77769;SDS011;66961;51.482;9.160;2023-06-19T06:28:33;11.70;;;9.47;;
77769;SDS011;66961;51.482;9.160;2023-06-19T06:30:59;10.07;;;9.00;;
77769;SDS011;66961;51.482;9.160;2023-06-19T06:33:24;11.05;;;9.95;;
77769;SDS011;66961;51.482;9.160;2023-06-19T06:35:49;10.30;;;9.30;;
77769;SDS011;66961;51.482;9.160;2023-06-19T06:38:15;10.35;;;9.32;;
77769;SDS011;66961;51.482;9.160;2023-06-19T06:40:40;9.27;;;8.37;;
77769;SDS011;66961;51.482;9.160;2023-06-19T06:43:05;10.73;;;9.47;;
77769;SDS011;66961;51.482;9.160;2023-06-19T06:45:30;10.10;;;8.57;;
77769;SDS011;66961;51.482;9.160;2023-06-19T06:47:56;9.47;;;8.57;;
77769;SDS011;66961;51.482;9.160;2023-06-19T06:50:21;10.00;;;8.40;;
77769;SDS011;66961;51.482;9.160;2023-06-19T06:52:46;9.87;;;8.97;;
77769;SDS011;66961;51.482;9.160;2023-06-19T06:55:11;11.23;;;9.30;;
77769;SDS011;66961;51.482;9.160;2023-06-19T06:57:37;10.45;;;9.32;;
77769;SDS011;66961;51.482;9.160;2023-06-19T07:00:03;10.23;;;9.07;;
77769;SDS011;66961;51.482;9.160;2023-06-19T07:02:29;10.30;;;9.30;;
77769;SDS011;66961;51.482;9.160;2023-06-19T07:04:55;10.52;;;9.43;;
77769;SDS011;66961;51.482;9.160;2023-06-19T07:07:20;9.98;;;8.98;;
77769;SDS011;66961;51.482;9.160;2023-06-19T07:09:45;10.70;;;9.63;;
77769;SDS011;66961;51.482;9.160;2023-06-19T07:12:11;10.93;;;9.27;;
77769;SDS011;66961;51.482;9.160;2023-06-19T07:14:36;9.88;;;8.80;;
77769;SDS011;66961;51.482;9.160;2023-06-19T07:17:02;10.77;;;8.40;;
77769;SDS011;66961;51.482;9.160;2023-06-19T07:19:27;8.38;;;7.47;;
77769;SDS011;66961;51.482;9.160;2023-06-19T07:21:52;10.13;;;8.73;;
77769;SDS011;66961;51.482;9.160;2023-06-19T07:24:18;8.95;;;7.90;;
77769;SDS011;66961;51.482;9.160;2023-06-19T07:26:45;8.57;;;7.63;;
77769;SDS011;66961;51.482;9.160;2023-06-19T07:29:11;9.35;;;8.45;;
77769;SDS011;66961;51.482;9.160;2023-06-19T07:31:36;8.70;;;7.63;;
77769;SDS011;66961;51.482;9.160;2023-06-19T07:34:01;9.33;;;8.33;;
77769;SDS011;66961;51.482;9.160;2023-06-19T07:36:27;8.20;;;7.47;;
77769;SDS011;66961;51.482;9.160;2023-06-19T07:38:52;8.27;;;7.10;;
77769;SDS011;66961;51.482;9.160;2023-06-19T07:41:17;9.20;;;7.40;;
77769;SDS011;66961;51.482;9.160;2023-06-19T07:43:42;8.95;;;8.05;;
77769;SDS011;66961;51.482;9.160;2023-06-19T07:46:09;10.77;;;8.00;;
77769;SDS011;66961;51.482;9.160;2023-06-19T07:48:34;8.73;;;7.82;;
77769;SDS011;66961;51.482;9.160;2023-06-19T07:50:59;7.80;;;7.00;;
77769;SDS011;66961;51.482;9.160;2023-06-19T07:53:25;8.43;;;7.60;;
77769;SDS011;66961;51.482;9.160;2023-06-19T07:55:50;12.07;;;8.07;;
77769;SDS011;66961;51.482;9.160;2023-06-19T07:58:15;7.77;;;7.07;;
77769;SDS011;66961;51.482;9.160;2023-06-19T08:00:41;8.55;;;7.63;;
77769;SDS011;66961;51.482;9.160;2023-06-19T08:03:06;9.17;;;8.30;;
77769;SDS011;66961;51.482;9.160;2023-06-19T08:05:31;8.97;;;7.07;;
77769;SDS011;66961;51.482;9.160;2023-06-19T08:07:58;6.90;;;6.20;;
77769;SDS011;66961;51.482;9.160;2023-06-19T08:10:24;6.85;;;6.18;;
77769;SDS011;66961;51.482;9.160;2023-06-19T08:12:49;6.88;;;6.18;;
77769;SDS011;66961;51.482;9.160;2023-06-19T08:15:14;7.13;;;5.80;;
77769;SDS011;66961;51.482;9.160;2023-06-19T08:17:40;6.35;;;5.68;;
77769;SDS011;66961;51.482;9.160;2023-06-19T08:20:06;6.50;;;5.90;;
77769;SDS011;66961;51.482;9.160;2023-06-19T08:22:32;6.43;;;5.50;;
77769;SDS011;66961;51.482;9.160;2023-06-19T08:24:57;5.68;;;5.18;;
77769;SDS011;66961;51.482;9.160;2023-06-19T08:27:22;6.40;;;5.80;;
77769;SDS011;66961;51.482;9.160;2023-06-19T08:29:48;7.03;;;5.93;;
77769;SDS011;66961;51.482;9.160;2023-06-19T08:32:13;7.90;;;6.07;;
77769;SDS011;66961;51.482;9.160;2023-06-19T08:34:38;6.70;;;6.03;;
77769;SDS011;66961;51.482;9.160;2023-06-19T08:37:04;7.40;;;6.67;;
77769;SDS011;66961;51.482;9.160;2023-06-19T08:39:30;7.05;;;6.38;;
77769;SDS011;66961;51.482;9.160;2023-06-19T08:41:56;6.72;;;5.82;;
77769;SDS011;66961;51.482;9.160;2023-06-19T08:44:21;6.88;;;6.28;;
77769;SDS011;66961;51.482;9.160;2023-06-19T08:46:46;6.35;;;5.75;;
77769;SDS011;66961;51.482;9.160;2023-06-19T08:49:12;7.18;;;6.30;;
77769;SDS011;66961;51.482;9.160;2023-06-19T08:51:37;6.80;;;6.20;;
77769;SDS011;66961;51.482;9.160;2023-06-19T08:54:04;5.80;;;5.30;;
77769;SDS011;66961;51.482;9.160;2023-06-19T08:56:31;6.57;;;5.97;;
77769;SDS011;66961;51.482;9.160;2023-06-19T08:58:57;7.32;;;5.72;;
77769;SDS011;66961;51.482;9.160;2023-06-19T09:01:31;6.50;;;5.95;;
77769;SDS011;66961;51.482;9.160;2023-06-19T09:03:57;6.22;;;5.60;;
77769;SDS011;66961;51.482;9.160;2023-06-19T09:06:22;6.35;;;5.63;;
77769;SDS011;66961;51.482;9.160;2023-06-19T09:08:57;6.27;;;5.67;;
77769;SDS011;66961;51.482;9.160;2023-06-19T09:11:23;7.30;;;5.75;;
77769;SDS011;66961;51.482;9.160;2023-06-19T09:13:55;6.65;;;5.85;;
77769;SDS011;66961;51.482;9.160;2023-06-19T09:16:21;6.80;;;6.03;;
77769;SDS011;66961;51.482;9.160;2023-06-19T09:18:47;6.17;;;5.67;;
77769;SDS011;66961;51.482;9.160;2023-06-19T09:21:17;6.85;;;6.25;;
77769;SDS011;66961;51.482;9.160;2023-06-19T09:23:44;6.53;;;6.00;;
77769;SDS011;66961;51.482;9.160;2023-06-19T09:26:11;7.15;;;5.75;;
77769;SDS011;66961;51.482;9.160;2023-06-19T09:28:40;6.53;;;5.45;;
77769;SDS011;66961;51.482;9.160;2023-06-19T09:31:06;6.07;;;5.57;;
77769;SDS011;66961;51.482;9.160;2023-06-19T09:33:32;6.10;;;5.50;;
77769;SDS011;66961;51.482;9.160;2023-06-19T09:36:00;6.18;;;5.57;;
77769;SDS011;66961;51.482;9.160;2023-06-19T09:38:26;6.07;;;5.35;;
77769;SDS011;66961;51.482;9.160;2023-06-19T09:40:55;6.15;;;5.57;;
77769;SDS011;66961;51.482;9.160;2023-06-19T09:43:23;6.35;;;5.72;;
77769;SDS011;66961;51.482;9.160;2023-06-19T09:46:02;6.90;;;5.90;;
77769;SDS011;66961;51.482;9.160;2023-06-19T09:48:30;6.10;;;5.50;;
77769;SDS011;66961;51.482;9.160;2023-06-19T09:51:16;6.93;;;6.30;;
77769;SDS011;66961;51.482;9.160;2023-06-19T09:53:45;8.10;;;6.38;;
77769;SDS011;66961;51.482;9.160;2023-06-19T09:56:12;6.15;;;5.55;;
77769;SDS011;66961;51.482;9.160;2023-06-19T09:58:37;6.47;;;5.88;;
77769;SDS011;66961;51.482;9.160;2023-06-19T10:01:04;6.82;;;6.22;;
77769;SDS011;66961;51.482;9.160;2023-06-19T10:03:31;7.88;;;6.25;;
77769;SDS011;66961;51.482;9.160;2023-06-19T10:05:58;6.65;;;6.05;;
77769;SDS011;66961;51.482;9.160;2023-06-19T10:08:31;6.60;;;6.00;;
77769;SDS011;66961;51.482;9.160;2023-06-19T10:11:03;6.38;;;5.78;;
77769;SDS011;66961;51.482;9.160;2023-06-19T10:13:32;6.60;;;6.00;;
77769;SDS011;66961;51.482;9.160;2023-06-19T10:15:58;7.10;;;6.50;;
77769;SDS011;66961;51.482;9.160;2023-06-19T10:18:24;6.85;;;6.15;;
77769;SDS011;66961;51.482;9.160;2023-06-19T10:20:49;6.85;;;6.00;;
77769;SDS011;66961;51.482;9.160;2023-06-19T10:23:15;6.67;;;6.07;;
77769;SDS011;66961;51.482;9.160;2023-06-19T10:25:42;6.38;;;5.78;;
77769;SDS011;66961;51.482;9.160;2023-06-19T10:28:17;7.22;;;6.55;;
77769;SDS011;66961;51.482;9.160;2023-06-19T10:30:43;6.90;;;6.20;;
77769;SDS011;66961;51.482;9.160;2023-06-19T10:33:08;7.40;;;6.70;;
77769;SDS011;66961;51.482;9.160;2023-06-19T10:35:37;6.75;;;6.22;;
77769;SDS011;66961;51.482;9.160;2023-06-19T10:38:03;10.02;;;6.45;;
77769;SDS011;66961;51.482;9.160;2023-06-19T10:40:30;7.00;;;6.40;;
77769;SDS011;66961;51.482;9.160;2023-06-19T10:42:55;7.65;;;6.32;;
77769;SDS011;66961;51.482;9.160;2023-06-19T10:45:20;6.80;;;6.30;;
77769;SDS011;66961;51.482;9.160;2023-06-19T10:47:46;7.28;;;6.57;;
77769;SDS011;66961;51.482;9.160;2023-06-19T10:50:14;7.07;;;6.45;;
77769;SDS011;66961;51.482;9.160;2023-06-19T10:52:40;6.22;;;5.72;;
77769;SDS011;66961;51.482;9.160;2023-06-19T10:55:06;8.35;;;6.00;;
77769;SDS011;66961;51.482;9.160;2023-06-19T10:57:32;7.22;;;6.53;;
77769;SDS011;66961;51.482;9.160;2023-06-19T10:59:57;6.95;;;6.35;;
77769;SDS011;66961;51.482;9.160;2023-06-19T11:02:23;6.55;;;5.95;;
77769;SDS011;66961;51.482;9.160;2023-06-19T11:04:51;6.70;;;6.10;;
77769;SDS011;66961;51.482;9.160;2023-06-19T11:07:17;6.18;;;5.68;;
77769;SDS011;66961;51.482;9.160;2023-06-19T11:09:42;6.57;;;5.97;;
77769;SDS011;66961;51.482;9.160;2023-06-19T11:12:08;6.60;;;5.97;;
77769;SDS011;66961;51.482;9.160;2023-06-19T11:14:33;6.07;;;5.50;;
77769;SDS011;66961;51.482;9.160;2023-06-19T11:16:59;6.30;;;5.70;;
77769;SDS011;66961;51.482;9.160;2023-06-19T11:19:24;5.30;;;4.88;;
77769;SDS011;66961;51.482;9.160;2023-06-19T11:21:57;6.32;;;5.13;;
77769;SDS011;66961;51.482;9.160;2023-06-19T11:24:22;6.85;;;5.00;;
77769;SDS011;66961;51.482;9.160;2023-06-19T11:26:48;6.72;;;5.80;;
77769;SDS011;66961;51.482;9.160;2023-06-19T11:31:47;6.75;;;5.82;;
77769;SDS011;66961;51.482;9.160;2023-06-19T11:34:13;5.75;;;5.18;;
77769;SDS011;66961;51.482;9.160;2023-06-19T11:36:39;5.65;;;4.97;;
77769;SDS011;66961;51.482;9.160;2023-06-19T11:39:09;5.82;;;5.35;;
77769;SDS011;66961;51.482;9.160;2023-06-19T11:41:36;4.97;;;4.57;;
77769;SDS011;66961;51.482;9.160;2023-06-19T11:44:03;5.88;;;5.38;;
77769;SDS011;66961;51.482;9.160;2023-06-19T11:46:30;6.40;;;5.30;;
77769;SDS011;66961;51.482;9.160;2023-06-19T11:49:15;5.00;;;4.53;;
77769;SDS011;66961;51.482;9.160;2023-06-19T11:51:41;4.75;;;4.35;;
77769;SDS011;66961;51.482;9.160;2023-06-19T11:54:08;4.75;;;4.25;;
77769;SDS011;66961;51.482;9.160;2023-06-19T11:56:34;5.82;;;4.10;;
77769;SDS011;66961;51.482;9.160;2023-06-19T11:59:03;4.90;;;4.40;;
77769;SDS011;66961;51.482;9.160;2023-06-19T12:01:29;7.82;;;4.65;;
77769;SDS011;66961;51.482;9.160;2023-06-19T12:03:56;5.60;;;4.50;;
77769;SDS011;66961;51.482;9.160;2023-06-19T12:06:21;4.60;;;4.20;;
77769;SDS011;66961;51.482;9.160;2023-06-19T12:08:47;5.40;;;4.35;;
77769;SDS011;66961;51.482;9.160;2023-06-19T12:11:12;5.47;;;4.90;;
77769;SDS011;66961;51.482;9.160;2023-06-19T12:13:37;5.90;;;5.30;;
77769;SDS011;66961;51.482;9.160;2023-06-19T12:16:03;6.80;;;4.80;;
77769;SDS011;66961;51.482;9.160;2023-06-19T12:18:28;6.43;;;5.15;;
77769;SDS011;66961;51.482;9.160;2023-06-19T12:20:53;5.70;;;5.20;;
77769;SDS011;66961;51.482;9.160;2023-06-19T12:23:18;5.77;;;5.20;;
77769;SDS011;66961;51.482;9.160;2023-06-19T12:25:44;5.20;;;4.80;;
77769;SDS011;66961;51.482;9.160;2023-06-19T12:28:09;6.03;;;5.43;;
77769;SDS011;66961;51.482;9.160;2023-06-19T12:30:35;4.85;;;4.45;;
77769;SDS011;66961;51.482;9.160;2023-06-19T12:33:01;6.80;;;4.72;;
77769;SDS011;66961;51.482;9.160;2023-06-19T12:35:26;5.07;;;4.57;;
77769;SDS011;66961;51.482;9.160;2023-06-19T12:37:52;4.97;;;4.57;;
77769;SDS011;66961;51.482;9.160;2023-06-19T12:40:17;6.72;;;6.03;;
77769;SDS011;66961;51.482;9.160;2023-06-19T12:42:43;7.35;;;4.70;;
77769;SDS011;66961;51.482;9.160;2023-06-19T12:45:08;4.60;;;4.20;;
77769;SDS011;66961;51.482;9.160;2023-06-19T12:47:34;5.13;;;3.42;;
77769;SDS011;66961;51.482;9.160;2023-06-19T12:49:59;6.78;;;4.13;;
77769;SDS011;66961;51.482;9.160;2023-06-19T12:52:24;3.97;;;3.58;;
77769;SDS011;66961;51.482;9.160;2023-06-19T12:54:49;4.33;;;3.67;;
77769;SDS011;66961;51.482;9.160;2023-06-19T12:57:15;4.80;;;4.40;;
77769;SDS011;66961;51.482;9.160;2023-06-19T12:59:40;5.30;;;4.80;;
77769;SDS011;66961;51.482;9.160;2023-06-19T13:02:05;4.47;;;4.00;;
77769;SDS011;66961;51.482;9.160;2023-06-19T13:04:30;4.83;;;3.60;;
77769;SDS011;66961;51.482;9.160;2023-06-19T13:06:56;4.37;;;3.70;;
77769;SDS011;66961;51.482;9.160;2023-06-19T13:09:21;3.53;;;3.00;;
77769;SDS011;66961;51.482;9.160;2023-06-19T13:11:46;4.10;;;3.70;;
77769;SDS011;66961;51.482;9.160;2023-06-19T13:14:11;3.77;;;3.40;;
77769;SDS011;66961;51.482;9.160;2023-06-19T13:16:37;4.10;;;3.43;;
77769;SDS011;66961;51.482;9.160;2023-06-19T13:19:02;3.70;;;3.40;;
77769;SDS011;66961;51.482;9.160;2023-06-19T13:21:27;3.53;;;3.17;;
77769;SDS011;66961;51.482;9.160;2023-06-19T13:23:52;3.83;;;3.08;;
77769;SDS011;66961;51.482;9.160;2023-06-19T13:26:18;3.25;;;2.95;;
77769;SDS011;66961;51.482;9.160;2023-06-19T13:28:43;4.00;;;3.00;;
77769;SDS011;66961;51.482;9.160;2023-06-19T13:31:08;4.07;;;3.65;;
77769;SDS011;66961;51.482;9.160;2023-06-19T13:33:34;3.63;;;3.33;;
77769;SDS011;66961;51.482;9.160;2023-06-19T13:35:59;5.20;;;3.20;;
77769;SDS011;66961;51.482;9.160;2023-06-19T13:38:24;3.72;;;3.42;;
77769;SDS011;66961;51.482;9.160;2023-06-19T13:40:49;3.78;;;3.28;;
77769;SDS011;66961;51.482;9.160;2023-06-19T13:43:15;3.30;;;3.00;;
77769;SDS011;66961;51.482;9.160;2023-06-19T13:45:40;3.17;;;2.45;;
77769;SDS011;66961;51.482;9.160;2023-06-19T13:48:06;3.00;;;2.80;;
77769;SDS011;66961;51.482;9.160;2023-06-19T13:50:31;3.28;;;2.88;;
77769;SDS011;66961;51.482;9.160;2023-06-19T13:52:56;3.85;;;3.20;;
77769;SDS011;66961;51.482;9.160;2023-06-19T13:55:22;3.13;;;2.83;;
77769;SDS011;66961;51.482;9.160;2023-06-19T13:57:47;3.50;;;3.20;;
77769;SDS011;66961;51.482;9.160;2023-06-19T14:00:13;3.30;;;2.90;;
77769;SDS011;66961;51.482;9.160;2023-06-19T14:02:38;3.22;;;2.90;;
77769;SDS011;66961;51.482;9.160;2023-06-19T14:05:04;3.53;;;3.20;;
77769;SDS011;66961;51.482;9.160;2023-06-19T14:07:30;3.15;;;2.90;;
77769;SDS011;66961;51.482;9.160;2023-06-19T14:09:56;2.75;;;2.42;;
77769;SDS011;66961;51.482;9.160;2023-06-19T14:12:21;6.20;;;2.58;;
77769;SDS011;66961;51.482;9.160;2023-06-19T14:14:46;3.88;;;2.45;;
77769;SDS011;66961;51.482;9.160;2023-06-19T14:17:12;3.70;;;2.20;;
77769;SDS011;66961;51.482;9.160;2023-06-19T14:19:38;3.05;;;2.33;;
77769;SDS011;66961;51.482;9.160;2023-06-19T14:22:04;2.60;;;2.38;;
77769;SDS011;66961;51.482;9.160;2023-06-19T14:24:29;3.00;;;2.70;;
77769;SDS011;66961;51.482;9.160;2023-06-19T14:26:54;3.30;;;2.38;;
77769;SDS011;66961;51.482;9.160;2023-06-19T14:29:20;2.40;;;2.20;;
77769;SDS011;66961;51.482;9.160;2023-06-19T14:31:45;2.10;;;1.80;;
77769;SDS011;66961;51.482;9.160;2023-06-19T14:34:10;2.47;;;2.28;;
77769;SDS011;66961;51.482;9.160;2023-06-19T14:36:38;3.75;;;2.40;;
77769;SDS011;66961;51.482;9.160;2023-06-19T14:39:04;3.22;;;2.35;;